Time;durP1;ratioP1;P1;durP2;ratioP2;P2;SDS_P1;SDS_P2;PMS_P1;PMS_P2;Temp;Humidity;BMP_temperature;BMP_pressure;BME280_temperature;BME280_humidity;BME280_pressure;Samples;Min_cycle;Max_cycle;Signal;HPM_P1;HPM_P2
2023/08/18 00:00:19;;;;;;;4.40;0.32;;;;;;;15.54;51.96;102063.47;4991505;28;20033;-78
2023/08/18 00:02:45;;;;;;;0.93;0.20;;;;;;;15.50;51.90;102063.66;4974218;28;20034;-76
2023/08/18 00:05:10;;;;;;;2.05;0.25;;;;;;;15.57;51.73;102062.47;4996173;28;20113;-75
2023/08/18 00:07:36;;;;;;;0.90;0.20;;;;;;;15.57;51.95;102063.34;4989858;28;20854;-77
2023/08/18 00:10:03;;;;;;;1.45;0.47;;;;;;;15.60;51.52;102057.09;4993825;28;20486;-76
2023/08/18 00:12:28;;;;;;;2.05;0.22;;;;;;;15.58;51.85;102058.94;4975236;28;20132;-77
2023/08/18 00:14:54;;;;;;;1.70;0.20;;;;;;;15.62;51.57;102057.00;4977611;28;20108;-76
2023/08/18 00:17:19;;;;;;;2.20;0.63;;;;;;;15.62;51.67;102064.91;4964160;28;20119;-76
2023/08/18 00:19:45;;;;;;;1.73;0.38;;;;;;;15.63;51.70;102056.94;4980728;28;20049;-77
2023/08/18 00:22:11;;;;;;;1.48;0.35;;;;;;;15.58;51.72;102059.78;4979617;28;20033;-74
2023/08/18 00:24:36;;;;;;;1.98;0.52;;;;;;;15.61;51.73;102063.22;4993620;28;20042;-78
2023/08/18 00:27:02;;;;;;;1.77;0.43;;;;;;;15.68;51.65;102060.25;4980536;28;20103;-76
2023/08/18 00:29:28;;;;;;;3.22;0.43;;;;;;;15.63;51.74;102059.59;4973988;28;20054;-76
2023/08/18 00:31:54;;;;;;;5.70;0.45;;;;;;;15.71;51.30;102054.00;4983659;28;20026;-75
2023/08/18 00:34:19;;;;;;;4.40;0.57;;;;;;;15.74;51.39;102052.06;4992913;28;20630;-77
2023/08/18 00:36:45;;;;;;;1.10;0.47;;;;;;;15.82;51.27;102056.16;4978921;28;20502;-77
2023/08/18 00:39:10;;;;;;;2.17;0.22;;;;;;;15.74;51.72;102057.34;4978115;28;20034;-78
2023/08/18 00:41:36;;;;;;;1.40;0.43;;;;;;;15.80;51.51;102049.19;4992270;28;20038;-77
2023/08/18 00:44:02;;;;;;;1.48;0.40;;;;;;;15.71;51.54;102054.00;4980242;28;20742;-75
2023/08/18 00:46:29;;;;;;;5.53;0.50;;;;;;;15.69;51.30;102043.53;4993515;28;20444;-77
2023/08/18 00:48:58;;;;;;;3.42;0.63;;;;;;;15.64;51.48;102047.25;4974924;28;20053;-76
2023/08/18 00:51:24;;;;;;;1.85;1.20;;;;;;;15.75;51.35;102039.75;4979442;28;20034;-76
2023/08/18 00:53:50;;;;;;;1.52;0.52;;;;;;;15.73;51.42;102041.63;4979958;28;20045;-76
2023/08/18 00:56:18;;;;;;;4.53;0.50;;;;;;;15.70;51.48;102031.19;4979703;28;20030;-76
2023/08/18 00:58:44;;;;;;;0.98;0.35;;;;;;;15.67;51.35;102031.34;4980583;28;20691;-76
2023/08/18 01:01:10;;;;;;;3.55;0.70;;;;;;;15.71;51.33;102027.66;4995308;28;20034;-77
2023/08/18 01:03:35;;;;;;;2.40;0.50;;;;;;;15.69;51.14;102026.84;4977790;28;20124;-75
2023/08/18 01:06:01;;;;;;;2.55;0.60;;;;;;;15.55;51.97;102023.03;4979199;28;20076;-75
2023/08/18 01:08:27;;;;;;;3.40;0.65;;;;;;;15.69;51.51;102018.94;4975560;28;20068;-77
2023/08/18 01:11:05;;;;;;;0.85;0.20;;;;;;;15.71;51.66;102015.31;4990349;28;20676;-76
2023/08/18 01:13:39;;;;;;;4.70;1.17;;;;;;;15.68;51.39;102009.31;4990224;28;20129;-76
2023/08/18 01:16:12;;;;;;;2.45;0.30;;;;;;;15.74;51.28;102006.41;4980591;28;20297;-78
2023/08/18 01:18:38;;;;;;;2.63;0.35;;;;;;;15.81;51.01;102007.84;4976728;28;20136;-76
2023/08/18 01:21:10;;;;;;;6.38;0.40;;;;;;;15.69;51.51;102006.63;4959208;28;20044;-76
2023/08/18 01:23:39;;;;;;;2.55;0.32;;;;;;;15.72;51.58;101997.72;4991933;28;20045;-76
2023/08/18 01:26:05;;;;;;;3.10;0.30;;;;;;;15.73;51.38;101996.81;4962404;28;20029;-75
2023/08/18 01:28:32;;;;;;;6.05;0.55;;;;;;;15.71;51.90;101991.59;4978154;28;20820;-78
2023/08/18 01:31:01;;;;;;;0.70;0.30;;;;;;;15.69;51.78;101987.31;4979988;28;20030;-77
2023/08/18 01:33:32;;;;;;;3.33;0.43;;;;;;;15.70;51.70;101991.66;4992355;28;20037;-76
2023/08/18 01:36:08;;;;;;;2.03;0.32;;;;;;;15.69;52.05;101987.31;4995798;28;20048;-77
2023/08/18 01:38:35;;;;;;;1.80;0.30;;;;;;;15.66;51.76;101974.25;4972766;28;20077;-78
2023/08/18 01:41:05;;;;;;;1.92;0.60;;;;;;;15.54;51.89;101965.13;4977352;28;20108;-76
2023/08/18 01:43:32;;;;;;;2.45;0.55;;;;;;;15.57;52.13;101962.34;4976959;28;20050;-76
2023/08/18 01:46:00;;;;;;;2.45;0.90;;;;;;;15.58;52.18;101969.34;4995950;28;20117;-76
2023/08/18 01:48:25;;;;;;;1.80;0.60;;;;;;;15.56;52.21;101966.75;4979646;28;20623;-76
2023/08/18 01:50:51;;;;;;;2.60;0.40;;;;;;;15.43;52.50;101964.75;4960249;28;20041;-76
2023/08/18 01:53:16;;;;;;;2.92;0.47;;;;;;;15.52;52.58;101961.69;4962482;28;20049;-76
2023/08/18 01:55:43;;;;;;;3.92;0.68;;;;;;;15.55;52.39;101959.81;4991513;28;20696;-74
2023/08/18 01:58:08;;;;;;;1.75;0.60;;;;;;;15.58;52.40;101959.66;4978917;28;20818;-76
2023/08/18 02:00:34;;;;;;;4.15;0.55;;;;;;;15.60;52.55;101956.97;4972655;28;20080;-75
2023/08/18 02:02:59;;;;;;;1.17;0.38;;;;;;;15.66;52.62;101955.81;4962221;28;20077;-76
2023/08/18 02:05:25;;;;;;;2.45;0.70;;;;;;;15.60;52.77;101956.97;4994685;28;20042;-76
2023/08/18 02:07:51;;;;;;;2.17;0.43;;;;;;;15.56;52.86;101950.97;4975663;28;20058;-76
2023/08/18 02:10:16;;;;;;;3.85;0.63;;;;;;;15.44;53.27;101956.78;4979068;28;20124;-76
2023/08/18 02:12:43;;;;;;;6.68;0.85;;;;;;;15.56;53.06;101950.97;4969630;28;20507;-75
2023/08/18 02:15:08;;;;;;;4.90;0.77;;;;;;;15.54;52.88;101947.53;4963110;28;20087;-76
2023/08/18 02:17:34;;;;;;;5.28;0.82;;;;;;;15.58;53.17;101954.38;4976572;28;20583;-75
2023/08/18 02:20:03;;;;;;;2.03;0.52;;;;;;;15.25;53.99;101955.84;4994256;28;20133;-76
2023/08/18 02:22:29;;;;;;;2.85;0.98;;;;;;;15.36;54.08;101948.34;4991189;28;20712;-77
2023/08/18 02:24:54;;;;;;;2.33;1.00;;;;;;;15.39;53.78;101956.09;4975124;28;20145;-77
2023/08/18 02:27:20;;;;;;;3.80;0.95;;;;;;;15.43;54.00;101956.84;4959056;28;20029;-77
2023/08/18 02:29:45;;;;;;;5.00;1.35;;;;;;;15.44;53.70;101951.50;4981490;28;20833;-75
2023/08/18 02:32:11;;;;;;;4.03;1.45;;;;;;;15.54;53.59;101949.31;4983985;28;20157;-75
2023/08/18 02:34:37;;;;;;;3.10;1.27;;;;;;;15.52;53.67;101949.38;4977804;28;20099;-76
2023/08/18 02:37:02;;;;;;;4.68;0.75;;;;;;;15.42;53.71;101948.09;4978741;28;20750;-77
2023/08/18 02:39:28;;;;;;;6.53;2.00;;;;;;;15.53;53.64;101951.09;4973997;28;20053;-77
2023/08/18 02:41:54;;;;;;;3.90;1.27;;;;;;;15.53;53.65;101948.47;4962020;28;20033;-76
2023/08/18 02:44:20;;;;;;;4.65;1.83;;;;;;;15.40;54.13;101942.03;4974838;28;20037;-78
2023/08/18 02:46:47;;;;;;;1.75;1.00;;;;;;;15.36;54.02;101948.34;4981135;28;21131;-75
2023/08/18 02:49:13;;;;;;;2.85;1.52;;;;;;;15.41;54.12;101935.81;4975491;28;20051;-76
2023/08/18 02:51:38;;;;;;;4.20;1.60;;;;;;;15.37;54.16;101940.38;4978014;28;20095;-76
2023/08/18 02:54:04;;;;;;;5.90;2.05;;;;;;;15.34;54.39;101935.22;4993472;28;20049;-77
2023/08/18 02:56:31;;;;;;;8.52;1.98;;;;;;;15.38;54.30;101933.34;4992702;28;20585;-76
2023/08/18 02:58:58;;;;;;;5.45;1.77;;;;;;;15.34;54.52;101934.38;4975077;28;20037;-78
2023/08/18 03:01:24;;;;;;;5.70;1.80;;;;;;;15.35;54.50;101933.47;4962690;28;20048;-75
2023/08/18 03:03:49;;;;;;;5.55;1.83;;;;;;;15.42;54.40;101942.81;4975618;28;20452;-75
2023/08/18 03:06:15;;;;;;;3.33;1.92;;;;;;;15.37;54.61;101935.13;4980618;28;20859;-75
2023/08/18 03:08:40;;;;;;;7.50;2.35;;;;;;;15.16;55.07;101936.84;4976591;28;20066;-76
2023/08/18 03:11:06;;;;;;;9.98;2.60;;;;;;;15.33;54.90;101937.94;4977736;28;20030;-76
2023/08/18 03:13:32;;;;;;;5.43;1.67;;;;;;;15.40;54.35;101943.81;4971711;28;20104;-76
2023/08/18 03:15:58;;;;;;;3.90;1.70;;;;;;;15.46;54.48;101943.53;4977990;28;20171;-76
2023/08/18 03:18:23;;;;;;;2.70;1.95;;;;;;;15.43;54.41;101936.59;4958925;28;20058;-74
2023/08/18 03:20:50;;;;;;;4.70;2.40;;;;;;;15.37;54.69;101929.84;4973418;28;21186;-77
2023/08/18 03:23:18;;;;;;;9.40;2.35;;;;;;;15.31;54.72;101930.09;4973291;28;20485;-78
2023/08/18 03:25:44;;;;;;;7.95;2.47;;;;;;;15.45;54.68;101937.41;4974096;28;20496;-76
2023/08/18 03:28:12;;;;;;;4.40;2.10;;;;;;;15.27;54.78;101927.69;4978903;28;20053;-76
2023/08/18 03:30:38;;;;;;;6.82;2.72;;;;;;;15.40;54.40;101934.13;4972480;28;20060;-76
2023/08/18 03:33:06;;;;;;;4.47;1.98;;;;;;;15.24;55.30;101938.31;4978674;28;20431;-76
2023/08/18 03:35:32;;;;;;;4.97;2.10;;;;;;;15.39;54.67;101935.03;4974161;28;20041;-75
2023/08/18 03:38:04;;;;;;;7.00;2.60;;;;;;;15.34;55.26;101939.66;4961444;28;20034;-77
2023/08/18 03:40:31;;;;;;;3.95;2.42;;;;;;;15.32;55.17;101944.13;4975517;28;20038;-74
2023/08/18 03:42:56;;;;;;;7.05;2.38;;;;;;;15.42;54.55;101934.06;4971315;28;20049;-76
2023/08/18 03:45:23;;;;;;;7.82;2.45;;;;;;;15.37;55.21;101934.22;4974102;28;20034;-75
2023/08/18 03:47:50;;;;;;;11.10;2.78;;;;;;;15.48;54.82;101939.03;4982119;28;20061;-76
2023/08/18 03:50:15;;;;;;;3.13;2.40;;;;;;;15.48;54.83;101932.03;4978107;28;20477;-75
2023/08/18 03:52:41;;;;;;;3.35;1.85;;;;;;;15.51;54.71;101934.50;4957355;28;20034;-78
2023/08/18 03:55:06;;;;;;;5.53;2.83;;;;;;;15.51;54.45;101931.03;4975633;28;20026;-76
2023/08/18 03:57:32;;;;;;;5.85;2.65;;;;;;;15.49;54.89;101931.06;4976181;28;20038;-77
2023/08/18 03:59:58;;;;;;;3.60;2.45;;;;;;;15.48;54.71;101926.75;4974566;28;20472;-75
2023/08/18 04:02:23;;;;;;;6.22;2.42;;;;;;;15.44;55.05;101924.28;4978728;28;20639;-77
2023/08/18 04:04:49;;;;;;;5.95;2.47;;;;;;;15.49;54.78;101927.59;4974565;28;20417;-76
2023/08/18 04:07:15;;;;;;;4.60;2.40;;;;;;;15.44;54.83;101932.19;4976008;28;20034;-76
2023/08/18 04:09:40;;;;;;;3.55;2.38;;;;;;;15.40;54.96;101925.38;4987992;28;20068;-75
2023/08/18 04:12:06;;;;;;;6.20;2.92;;;;;;;15.39;55.21;101921.84;4979178;28;20051;-76
2023/08/18 04:14:33;;;;;;;6.55;3.20;;;;;;;15.27;55.37;101919.78;4977444;28;20192;-78
2023/08/18 04:16:58;;;;;;;3.58;2.25;;;;;;;15.40;55.02;101920.94;4994199;28;21090;-78
2023/08/18 04:19:24;;;;;;;3.90;2.33;;;;;;;15.43;55.08;101917.31;4978673;28;20049;-77
2023/08/18 04:21:49;;;;;;;5.13;1.90;;;;;;;15.38;55.09;101922.78;4990783;28;20040;-76
2023/08/18 04:24:15;;;;;;;3.08;1.70;;;;;;;15.31;55.40;101916.09;4977632;28;20049;-77
2023/08/18 04:26:40;;;;;;;6.43;2.05;;;;;;;15.36;55.31;101911.47;4976653;28;20030;-76
2023/08/18 04:29:07;;;;;;;3.75;1.85;;;;;;;15.35;55.12;101915.03;4979044;28;20080;-77
2023/08/18 04:31:33;;;;;;;8.45;1.98;;;;;;;15.27;55.51;101917.13;4973419;28;20332;-78
2023/08/18 04:34:07;;;;;;;3.78;2.00;;;;;;;15.26;55.62;101915.41;4993888;28;20564;-78
2023/08/18 04:36:33;;;;;;;4.35;1.75;;;;;;;15.43;55.23;101918.16;4980671;28;20048;-77
2023/08/18 04:38:59;;;;;;;8.85;2.50;;;;;;;15.45;54.99;101910.22;4963531;28;20218;-76
2023/08/18 04:41:29;;;;;;;10.00;1.88;;;;;;;15.50;54.62;101914.34;4978345;28;20107;-76
2023/08/18 04:43:55;;;;;;;6.15;1.45;;;;;;;15.50;54.99;101906.44;4991174;28;20524;-76
2023/08/18 04:46:24;;;;;;;4.82;1.38;;;;;;;15.52;55.07;101901.09;4980432;28;20053;-76
2023/08/18 04:48:51;;;;;;;6.00;2.10;;;;;;;15.38;55.29;101899.09;4976161;28;20085;-77
2023/08/18 04:51:16;;;;;;;4.68;1.67;;;;;;;15.53;54.78;101901.03;4979778;28;20886;-77
2023/08/18 04:53:42;;;;;;;2.42;1.67;;;;;;;15.56;54.68;101895.63;4975403;28;20069;-77
2023/08/18 04:56:09;;;;;;;6.10;1.65;;;;;;;15.65;54.54;101899.63;4978585;28;20026;-76
2023/08/18 04:58:35;;;;;;;2.55;1.92;;;;;;;15.66;54.71;101904.00;4979601;28;20038;-77
2023/08/18 05:01:00;;;;;;;3.22;1.70;;;;;;;15.70;54.51;101900.25;4991889;28;20428;-78
2023/08/18 05:03:26;;;;;;;4.38;2.08;;;;;;;15.57;54.86;101892.09;4966204;28;20052;-78
2023/08/18 05:06:04;;;;;;;7.95;2.25;;;;;;;15.66;54.39;101888.19;4979283;28;20030;-76
2023/08/18 05:08:31;;;;;;;8.32;1.55;;;;;;;15.73;54.64;101891.38;4977617;28;20044;-76
2023/08/18 05:11:02;;;;;;;4.57;2.22;;;;;;;15.71;54.64;101890.59;4988735;28;20104;-78
2023/08/18 05:13:27;;;;;;;4.38;1.90;;;;;;;15.75;54.49;101886.88;4976758;28;20129;-77
2023/08/18 05:15:54;;;;;;;6.43;2.22;;;;;;;15.91;54.11;101890.53;4977679;28;20196;-76
2023/08/18 05:18:20;;;;;;;2.97;1.80;;;;;;;16.05;54.22;101889.06;4977677;28;20030;-76
2023/08/18 05:20:46;;;;;;;3.25;1.83;;;;;;;16.11;53.58;101887.00;4976649;28;20129;-76
2023/08/18 05:23:11;;;;;;;5.53;2.00;;;;;;;16.28;53.03;101891.44;4991457;28;20053;-76
2023/08/18 05:25:36;;;;;;;6.25;2.22;;;;;;;16.32;52.96;101893.00;4977066;28;20432;-74
2023/08/18 05:28:02;;;;;;;6.53;2.13;;;;;;;16.16;53.04;101889.41;4975537;28;20064;-75
2023/08/18 05:30:28;;;;;;;7.90;2.13;;;;;;;16.12;53.51;101890.47;4992024;28;20193;-78
2023/08/18 05:32:53;;;;;;;3.38;1.55;;;;;;;16.13;53.12;101898.31;4975859;28;20796;-77
2023/08/18 05:35:19;;;;;;;3.55;1.77;;;;;;;16.19;53.42;101899.78;4977107;28;20033;-76
2023/08/18 05:37:44;;;;;;;4.43;1.88;;;;;;;15.95;53.88;101900.00;4974765;28;20104;-77
2023/08/18 05:40:10;;;;;;;4.78;1.83;;;;;;;16.10;53.17;101902.88;4974634;28;20041;-77
2023/08/18 05:42:36;;;;;;;6.50;1.65;;;;;;;16.22;53.63;101899.66;4989055;28;20045;-77
2023/08/18 05:45:01;;;;;;;7.18;2.00;;;;;;;16.23;53.35;101905.78;4991569;28;20025;-79
2023/08/18 05:47:27;;;;;;;6.68;3.42;;;;;;;16.30;53.04;101905.41;4993850;28;20036;-77
2023/08/18 05:49:52;;;;;;;4.28;1.70;;;;;;;16.37;53.05;101896.28;4960762;28;20086;-75
2023/08/18 05:52:18;;;;;;;2.70;1.85;;;;;;;16.46;52.70;101900.25;4977170;28;20060;-77
2023/08/18 05:54:43;;;;;;;4.68;1.80;;;;;;;16.54;52.75;101902.53;4991378;28;20140;-76
2023/08/18 05:57:09;;;;;;;9.70;3.08;;;;;;;16.70;52.27;101894.69;4979200;28;20026;-77
2023/08/18 05:59:35;;;;;;;3.83;1.30;;;;;;;16.63;52.38;101899.44;4974186;28;20038;-75
2023/08/18 06:02:01;;;;;;;8.10;1.88;;;;;;;16.59;52.18;101895.22;4990659;28;20378;-76
2023/08/18 06:04:27;;;;;;;5.47;1.92;;;;;;;16.55;52.61;101898.94;4994216;28;20195;-77
2023/08/18 06:06:52;;;;;;;12.90;2.00;;;;;;;16.56;52.38;101905.94;4971705;28;20099;-76
2023/08/18 06:09:19;;;;;;;4.25;2.03;;;;;;;16.49;52.82;101905.41;4990184;28;20046;-77
2023/08/18 06:11:44;;;;;;;2.05;1.20;;;;;;;16.56;53.11;101911.22;4992207;28;20030;-77
2023/08/18 06:14:10;;;;;;;5.53;1.58;;;;;;;16.70;51.99;101903.47;4974942;28;20070;-77
2023/08/18 06:16:36;;;;;;;5.18;1.20;;;;;;;16.94;51.72;101901.41;4973215;28;20025;-77
2023/08/18 06:19:01;;;;;;;7.03;1.13;;;;;;;17.16;50.96;101909.09;4959078;28;20098;-76
2023/08/18 06:21:27;;;;;;;4.35;1.45;;;;;;;16.81;51.91;101917.03;4991884;28;20094;-78
2023/08/18 06:23:52;;;;;;;7.53;1.27;;;;;;;16.86;52.04;101918.59;4986598;28;20052;-76
2023/08/18 06:26:18;;;;;;;3.92;0.98;;;;;;;16.61;52.35;101919.75;4978450;28;20042;-78
2023/08/18 06:28:43;;;;;;;6.07;1.98;;;;;;;16.54;52.51;101921.00;4979951;28;20096;-77
2023/08/18 06:31:09;;;;;;;3.22;1.27;;;;;;;16.55;52.56;101933.25;4980152;28;20034;-77
2023/08/18 06:33:35;;;;;;;3.42;1.55;;;;;;;16.30;52.78;101926.53;4972801;28;20298;-76
2023/08/18 06:36:02;;;;;;;2.95;1.17;;;;;;;16.38;53.25;101924.38;4958625;28;20110;-75
2023/08/18 06:38:28;;;;;;;10.35;1.25;;;;;;;16.50;52.88;101922.06;4991158;28;20050;-74
2023/08/18 06:40:53;;;;;;;3.50;1.27;;;;;;;16.44;52.75;101927.63;4956822;28;20046;-76
2023/08/18 06:43:19;;;;;;;3.72;1.20;;;;;;;16.48;52.96;101918.66;4971810;28;20056;-76
2023/08/18 06:45:45;;;;;;;2.53;1.33;;;;;;;16.57;52.92;101923.47;4979331;28;20029;-76
2023/08/18 06:48:10;;;;;;;2.28;1.45;;;;;;;16.76;52.65;101923.47;4976402;28;20524;-77
2023/08/18 06:50:36;;;;;;;4.32;2.25;;;;;;;16.85;52.30;101917.72;4974699;28;20042;-76
2023/08/18 06:53:02;;;;;;;2.42;1.27;;;;;;;17.16;51.01;101919.66;4991859;28;20141;-77
2023/08/18 06:55:28;;;;;;;1.35;1.00;;;;;;;17.02;51.27;101922.16;4989808;28;20096;-77
2023/08/18 06:57:53;;;;;;;4.38;1.35;;;;;;;17.05;51.56;101919.38;4971239;28;20061;-76
2023/08/18 07:00:20;;;;;;;5.43;1.60;;;;;;;17.12;51.50;101923.41;4956664;28;20121;-75
2023/08/18 07:02:46;;;;;;;5.47;1.73;;;;;;;17.07;51.23;101921.91;4970364;28;20137;-76
2023/08/18 07:05:12;;;;;;;2.92;1.50;;;;;;;16.78;51.87;101925.09;4974413;28;20721;-75
2023/08/18 07:07:38;;;;;;;5.80;1.67;;;;;;;16.78;51.86;101927.75;4988136;28;20656;-75
2023/08/18 07:10:04;;;;;;;2.58;1.70;;;;;;;16.61;52.79;101932.97;4970747;28;20074;-75
2023/08/18 07:12:30;;;;;;;4.93;1.52;;;;;;;16.79;52.40;101921.53;4957959;28;20076;-76
2023/08/18 07:14:56;;;;;;;3.45;1.80;;;;;;;16.81;52.46;101922.28;4971349;28;20113;-78
2023/08/18 07:17:21;;;;;;;4.70;1.35;;;;;;;16.98;52.37;101923.25;4970715;28;20057;-77
2023/08/18 07:19:47;;;;;;;7.35;1.35;;;;;;;17.19;51.18;101922.13;4977194;28;20149;-78
2023/08/18 07:22:12;;;;;;;4.78;1.45;;;;;;;17.04;51.83;101925.56;4976232;28;20033;-77
2023/08/18 07:24:38;;;;;;;2.78;1.58;;;;;;;17.12;51.74;101925.19;4974225;28;20085;-78
2023/08/18 07:27:04;;;;;;;3.90;1.40;;;;;;;17.07;51.26;101922.78;4990081;28;20107;-77
2023/08/18 07:29:30;;;;;;;4.18;1.40;;;;;;;17.22;51.29;101923.75;4972981;28;20054;-77
2023/08/18 07:31:56;;;;;;;5.50;1.63;;;;;;;17.16;51.49;101917.03;4986573;28;20664;-76
2023/08/18 07:34:21;;;;;;;4.70;1.92;;;;;;;17.25;51.32;101915.69;4976583;28;20234;-77
2023/08/18 07:36:47;;;;;;;5.38;1.38;;;;;;;17.55;50.44;101910.59;4992718;28;20026;-75
2023/08/18 07:39:12;;;;;;;3.40;1.33;;;;;;;17.70;50.15;101922.16;4979862;28;20080;-79
2023/08/18 07:41:39;;;;;;;4.50;1.23;;;;;;;17.58;50.42;101923.69;4977018;28;20133;-75
2023/08/18 07:44:05;;;;;;;5.07;1.80;;;;;;;17.62;50.65;101917.25;4992501;28;20056;-77
2023/08/18 07:46:30;;;;;;;3.40;1.80;;;;;;;17.65;50.59;101914.47;4960845;28;20034;-77
2023/08/18 07:48:58;;;;;;;7.43;1.80;;;;;;;17.86;49.76;101911.59;4976388;28;20098;-77
2023/08/18 07:51:24;;;;;;;5.78;1.75;;;;;;;17.95;49.23;101900.50;4959353;28;20129;-77
2023/08/18 07:53:50;;;;;;;2.70;1.88;;;;;;;18.09;48.84;101907.69;4969717;28;20144;-76
2023/08/18 07:56:15;;;;;;;2.88;1.05;;;;;;;18.15;49.37;101911.78;4991131;28;20033;-76
2023/08/18 07:58:41;;;;;;;3.60;1.58;;;;;;;18.45;48.84;101907.44;4974868;28;20127;-76
2023/08/18 08:01:06;;;;;;;2.78;1.50;;;;;;;18.55;47.91;101909.56;4958481;28;20037;-76
2023/08/18 08:03:35;;;;;;;1.65;1.20;;;;;;;18.40;47.94;101906.84;4973919;28;20140;-78
2023/08/18 08:06:04;;;;;;;2.55;1.63;;;;;;;18.37;48.45;101912.31;4978935;28;20038;-77
2023/08/18 08:08:30;;;;;;;2.00;1.75;;;;;;;18.52;47.91;101920.31;4976442;28;20042;-77
2023/08/18 08:10:57;;;;;;;4.13;2.10;;;;;;;18.61;48.38;101917.16;4974911;28;20033;-78
2023/08/18 08:13:23;;;;;;;4.43;1.67;;;;;;;19.12;47.67;101912.38;4960854;28;20716;-77
2023/08/18 08:15:49;;;;;;;7.72;1.50;;;;;;;19.83;45.70;101910.72;4979288;28;20040;-76
2023/08/18 08:18:17;;;;;;;2.35;1.20;;;;;;;20.72;43.32;101907.63;4975674;28;20046;-76
2023/08/18 08:20:42;;;;;;;13.20;8.07;;;;;;;21.44;41.57;101902.69;4959660;28;20108;-75
2023/08/18 08:23:08;;;;;;;4.10;1.80;;;;;;;22.11;39.98;101894.38;4973722;28;20049;-77
2023/08/18 08:25:35;;;;;;;3.25;1.65;;;;;;;21.83;40.57;101900.03;4974979;28;20070;-78
2023/08/18 08:28:02;;;;;;;5.05;1.48;;;;;;;21.06;41.70;101892.06;4977507;28;20050;-78
2023/08/18 08:30:31;;;;;;;3.47;1.42;;;;;;;20.78;42.51;101904.56;4972922;28;20038;-77
2023/08/18 08:32:57;;;;;;;4.93;1.65;;;;;;;20.42;43.20;101898.09;4958617;28;20160;-76
2023/08/18 08:35:23;;;;;;;2.70;1.60;;;;;;;20.35;44.47;101901.25;4974304;28;20455;-76
2023/08/18 08:37:48;;;;;;;1.58;1.10;;;;;;;20.38;43.54;101907.22;4977994;28;20046;-74
2023/08/18 08:40:19;;;;;;;5.68;1.60;;;;;;;19.96;44.16;101906.34;4981149;28;20140;-74
2023/08/18 08:42:45;;;;;;;3.25;1.42;;;;;;;19.67;45.63;101898.44;4977370;28;20471;-76
2023/08/18 08:45:11;;;;;;;4.93;2.30;;;;;;;19.97;44.58;101893.94;4983487;28;20079;-75
2023/08/18 08:47:39;;;;;;;3.53;1.50;;;;;;;20.44;44.01;101896.19;4991022;28;20037;-80
2023/08/18 08:50:05;;;;;;;6.45;1.70;;;;;;;20.72;42.99;101884.56;4994663;28;20289;-76
2023/08/18 08:52:34;;;;;;;3.20;2.05;;;;;;;20.76;43.24;101890.53;4980487;28;20033;-75
2023/08/18 08:55:02;;;;;;;5.20;2.00;;;;;;;21.10;42.84;101889.09;4993584;28;20318;-77
2023/08/18 08:57:27;;;;;;;3.47;1.25;;;;;;;21.52;41.77;101884.44;4978992;28;20579;-76
2023/08/18 08:59:54;;;;;;;3.83;1.63;;;;;;;22.61;38.73;101874.78;4989309;28;20077;-76
2023/08/18 09:02:20;;;;;;;7.40;2.80;;;;;;;22.94;38.75;101871.34;4976346;28;20422;-78
2023/08/18 09:04:46;;;;;;;4.82;1.70;;;;;;;23.82;37.95;101876.81;4991011;28;20833;-78
2023/08/18 09:07:13;;;;;;;5.05;2.10;;;;;;;24.83;35.19;101853.38;4980114;28;20105;-77
2023/08/18 09:09:39;;;;;;;4.35;1.33;;;;;;;25.19;35.20;101861.88;4991818;28;20048;-77
2023/08/18 09:12:07;;;;;;;5.00;1.83;;;;;;;25.24;34.52;101859.66;4965195;28;20506;-75
2023/08/18 09:14:38;;;;;;;4.70;2.00;;;;;;;24.87;35.12;101860.16;4971868;28;20065;-76
2023/08/18 09:17:05;;;;;;;4.07;1.33;;;;;;;24.88;35.01;101848.47;4976393;28;20052;-75
2023/08/18 09:19:31;;;;;;;4.00;1.52;;;;;;;23.90;36.58;101852.22;4972792;28;20034;-75
2023/08/18 09:21:58;;;;;;;3.42;1.92;;;;;;;23.27;38.17;101859.03;4993093;28;20034;-77
2023/08/18 09:24:24;;;;;;;3.33;1.88;;;;;;;23.17;38.38;101859.75;4991817;28;20096;-76
2023/08/18 09:26:49;;;;;;;2.85;1.88;;;;;;;23.17;38.24;101858.91;4980261;28;20045;-76
2023/08/18 09:29:15;;;;;;;5.50;1.80;;;;;;;22.69;38.81;101862.56;4980780;28;20050;-74
2023/08/18 09:31:40;;;;;;;2.33;1.15;;;;;;;22.03;40.68;101861.31;4979931;28;20034;-76
2023/08/18 09:34:06;;;;;;;5.22;2.10;;;;;;;21.79;40.60;101858.63;4994115;28;20492;-78
2023/08/18 09:36:31;;;;;;;2.13;1.23;;;;;;;21.70;42.84;101854.81;4994561;28;20715;-75
2023/08/18 09:38:57;;;;;;;4.03;1.95;;;;;;;22.11;41.05;101854.47;4991190;28;20038;-76
2023/08/18 09:41:23;;;;;;;2.53;1.33;;;;;;;22.29;40.74;101857.59;4972850;28;20464;-76
2023/08/18 09:43:49;;;;;;;3.55;1.50;;;;;;;22.30;40.18;101853.97;4972858;28;20124;-77
2023/08/18 09:46:16;;;;;;;5.65;1.88;;;;;;;22.31;39.95;101860.97;4991811;28;20612;-77
2023/08/18 09:48:45;;;;;;;2.17;1.35;;;;;;;22.54;40.57;101861.91;4978032;28;20050;-76
2023/08/18 09:51:12;;;;;;;2.53;1.48;;;;;;;22.71;39.96;101857.13;4976908;28;20433;-76
2023/08/18 09:53:45;;;;;;;3.75;1.23;;;;;;;23.28;37.97;101852.78;4977902;28;20038;-75
2023/08/18 09:56:23;;;;;;;3.05;1.48;;;;;;;23.20;38.63;101864.00;4990672;28;20048;-77
2023/08/18 09:59:12;;;;;;;2.17;1.40;;;;;;;23.21;38.50;101855.03;4991410;28;20416;-77
2023/08/18 10:01:39;;;;;;;3.50;2.40;;;;;;;23.17;38.93;101854.41;4977819;28;20064;-76
2023/08/18 10:04:06;;;;;;;4.32;1.77;;;;;;;23.87;38.28;101856.97;4960826;28;20104;-75
2023/08/18 10:06:36;;;;;;;4.75;1.70;;;;;;;24.28;37.70;101860.69;4993750;28;20038;-77
2023/08/18 10:09:01;;;;;;;3.90;1.42;;;;;;;24.81;37.12;101841.97;4976548;28;20496;-75
2023/08/18 10:11:27;;;;;;;6.47;1.85;;;;;;;24.26;37.05;101846.59;4991430;28;20073;-77
2023/08/18 10:13:54;;;;;;;3.58;1.52;;;;;;;24.03;37.90;101846.69;4991868;28;20091;-76
2023/08/18 10:16:20;;;;;;;8.25;2.13;;;;;;;23.40;38.24;101854.44;4962610;28;20040;-77
2023/08/18 10:18:54;;;;;;;8.48;2.20;;;;;;;22.94;39.68;101844.69;4963168;28;20048;-77
2023/08/18 10:21:20;;;;;;;6.82;2.08;;;;;;;23.09;39.72;101848.84;4989763;28;20044;-77
2023/08/18 10:23:47;;;;;;;9.15;2.20;;;;;;;22.80;40.33;101845.78;4980381;28;20129;-77
2023/08/18 10:26:14;;;;;;;4.30;2.15;;;;;;;22.83;39.94;101845.56;4981078;28;20042;-77
2023/08/18 10:28:40;;;;;;;4.35;2.58;;;;;;;22.57;40.26;101837.69;4958237;28;20069;-76
2023/08/18 10:31:08;;;;;;;5.40;1.48;;;;;;;22.84;42.04;101836.56;4963672;28;20033;-77
2023/08/18 10:33:37;;;;;;;6.03;2.17;;;;;;;23.26;39.84;101830.66;4959090;28;20131;-76
2023/08/18 10:36:06;;;;;;;4.25;2.15;;;;;;;23.27;38.88;101827.88;4996541;28;20615;-76
2023/08/18 10:38:36;;;;;;;5.80;2.28;;;;;;;23.00;39.61;101818.41;4990213;28;20038;-76
2023/08/18 10:41:03;;;;;;;5.28;2.03;;;;;;;23.35;39.89;101808.63;4977408;28;20113;-77
2023/08/18 10:43:29;;;;;;;5.55;2.85;;;;;;;24.30;38.67;101805.31;4976327;28;20061;-76
2023/08/18 10:46:01;;;;;;;5.57;3.00;;;;;;;24.42;38.54;101809.66;4999974;28;20114;-76
2023/08/18 10:48:32;;;;;;;5.28;2.70;;;;;;;24.29;38.36;101801.81;4981504;28;20056;-75
2023/08/18 10:50:58;;;;;;;4.28;2.83;;;;;;;24.56;37.54;101817.34;4977949;28;20031;-77
2023/08/18 10:53:23;;;;;;;3.25;2.95;;;;;;;24.66;37.67;101809.41;4992036;28;20064;-76
2023/08/18 10:55:53;;;;;;;5.35;3.17;;;;;;;24.77;37.42;101814.66;4993064;28;20472;-76
2023/08/18 10:58:20;;;;;;;3.55;2.42;;;;;;;24.40;37.13;101819.59;4975805;28;20184;-76
2023/08/18 11:00:49;;;;;;;6.65;2.75;;;;;;;23.91;38.15;101826.38;4994085;28;20049;-76
2023/08/18 11:03:15;;;;;;;6.25;2.50;;;;;;;23.27;39.70;101817.22;4994406;28;20038;-77
2023/08/18 11:05:40;;;;;;;4.68;3.25;;;;;;;22.83;41.62;101818.91;4973029;28;20048;-77
2023/08/18 11:08:27;;;;;;;13.40;4.00;;;;;;;22.81;41.56;101815.50;4976488;28;20045;-77
2023/08/18 11:10:52;;;;;;;3.60;3.08;;;;;;;23.21;40.69;101812.38;4991672;28;20045;-75
2023/08/18 11:13:26;;;;;;;7.63;4.47;;;;;;;23.38;39.90;101809.22;4989727;28;20576;-77
2023/08/18 11:15:53;;;;;;;4.18;3.28;;;;;;;23.00;41.14;101809.56;4980448;28;20096;-75
2023/08/18 11:18:20;;;;;;;5.50;3.28;;;;;;;22.90;42.00;101806.78;4976419;28;20037;-76
2023/08/18 11:20:46;;;;;;;7.85;3.95;;;;;;;22.92;41.23;101802.19;4956485;28;20338;-74